sensor_id;sensor_type;location;lat;lon;timestamp;temperature;humidity
1259;DHT22;619;51.472;6.628;2024-01-30T00:00:59;16.00;73.60
1259;DHT22;619;51.472;6.628;2024-01-30T00:03:25;16.00;73.60
1259;DHT22;619;51.472;6.628;2024-01-30T00:05:53;16.00;73.70
1259;DHT22;619;51.472;6.628;2024-01-30T00:08:19;16.00;73.90
1259;DHT22;619;51.472;6.628;2024-01-30T00:10:46;15.90;73.80
1259;DHT22;619;51.472;6.628;2024-01-30T00:13:12;15.90;74.00
1259;DHT22;619;51.472;6.628;2024-01-30T00:15:41;15.90;74.20
1259;DHT22;619;51.472;6.628;2024-01-30T00:18:07;15.80;74.10
1259;DHT22;619;51.472;6.628;2024-01-30T00:20:35;15.80;74.20
1259;DHT22;619;51.472;6.628;2024-01-30T00:23:03;15.80;74.30
1259;DHT22;619;51.472;6.628;2024-01-30T00:25:29;15.70;74.30
1259;DHT22;619;51.472;6.628;2024-01-30T00:27:57;15.70;74.50
1259;DHT22;619;51.472;6.628;2024-01-30T00:30:22;15.70;74.50
1259;DHT22;619;51.472;6.628;2024-01-30T00:32:50;15.70;75.20
1259;DHT22;619;51.472;6.628;2024-01-30T00:35:18;15.70;74.60
1259;DHT22;619;51.472;6.628;2024-01-30T00:37:46;15.70;74.60
1259;DHT22;619;51.472;6.628;2024-01-30T00:40:14;15.60;74.60
1259;DHT22;619;51.472;6.628;2024-01-30T00:42:43;15.60;74.60
1259;DHT22;619;51.472;6.628;2024-01-30T00:45:15;15.60;74.60
1259;DHT22;619;51.472;6.628;2024-01-30T00:47:41;15.70;74.70
1259;DHT22;619;51.472;6.628;2024-01-30T00:50:07;15.60;74.60
1259;DHT22;619;51.472;6.628;2024-01-30T00:52:35;15.60;74.50
1259;DHT22;619;51.472;6.628;2024-01-30T00:55:02;15.60;74.40
1259;DHT22;619;51.472;6.628;2024-01-30T00:57:28;15.70;74.50
1259;DHT22;619;51.472;6.628;2024-01-30T00:59:56;15.60;74.40
1259;DHT22;619;51.472;6.628;2024-01-30T01:02:24;15.60;74.40
1259;DHT22;619;51.472;6.628;2024-01-30T01:04:52;15.60;74.40
1259;DHT22;619;51.472;6.628;2024-01-30T01:07:20;15.60;74.30
1259;DHT22;619;51.472;6.628;2024-01-30T01:09:47;15.60;74.30
1259;DHT22;619;51.472;6.628;2024-01-30T01:12:13;15.60;74.30
1259;DHT22;619;51.472;6.628;2024-01-30T01:14:41;15.70;74.40
1259;DHT22;619;51.472;6.628;2024-01-30T01:17:09;15.70;74.30
1259;DHT22;619;51.472;6.628;2024-01-30T01:19:37;15.70;74.10
1259;DHT22;619;51.472;6.628;2024-01-30T01:22:02;15.70;74.10
1259;DHT22;619;51.472;6.628;2024-01-30T01:24:33;15.70;73.90
1259;DHT22;619;51.472;6.628;2024-01-30T01:27:01;15.70;73.90
1259;DHT22;619;51.472;6.628;2024-01-30T01:29:26;15.70;73.80
1259;DHT22;619;51.472;6.628;2024-01-30T01:31:57;15.70;73.90
1259;DHT22;619;51.472;6.628;2024-01-30T01:34:23;15.70;73.90
1259;DHT22;619;51.472;6.628;2024-01-30T01:36:54;15.70;73.90
1259;DHT22;619;51.472;6.628;2024-01-30T01:39:22;15.80;73.80
1259;DHT22;619;51.472;6.628;2024-01-30T01:41:54;15.80;73.80
1259;DHT22;619;51.472;6.628;2024-01-30T01:44:19;15.80;73.70
1259;DHT22;619;51.472;6.628;2024-01-30T01:46:45;15.80;73.60
1259;DHT22;619;51.472;6.628;2024-01-30T01:49:17;15.80;73.60
1259;DHT22;619;51.472;6.628;2024-01-30T01:51:43;15.80;73.40
1259;DHT22;619;51.472;6.628;2024-01-30T01:54:10;15.80;73.40
1259;DHT22;619;51.472;6.628;2024-01-30T01:56:37;15.80;73.50
1259;DHT22;619;51.472;6.628;2024-01-30T01:59:08;15.80;73.40
1259;DHT22;619;51.472;6.628;2024-01-30T02:01:36;15.80;73.40
1259;DHT22;619;51.472;6.628;2024-01-30T02:04:07;15.80;73.40
1259;DHT22;619;51.472;6.628;2024-01-30T02:06:33;15.80;73.30
1259;DHT22;619;51.472;6.628;2024-01-30T02:08:59;15.80;73.20
1259;DHT22;619;51.472;6.628;2024-01-30T02:11:27;15.80;73.10
1259;DHT22;619;51.472;6.628;2024-01-30T02:13:53;15.80;73.20
1259;DHT22;619;51.472;6.628;2024-01-30T02:16:21;15.80;73.20
1259;DHT22;619;51.472;6.628;2024-01-30T02:18:52;15.70;73.20
1259;DHT22;619;51.472;6.628;2024-01-30T02:21:18;15.70;73.30
1259;DHT22;619;51.472;6.628;2024-01-30T02:23:46;15.70;73.30
1259;DHT22;619;51.472;6.628;2024-01-30T02:26:12;15.70;73.30
1259;DHT22;619;51.472;6.628;2024-01-30T02:28:38;15.70;73.30
1259;DHT22;619;51.472;6.628;2024-01-30T02:31:04;15.60;73.30
1259;DHT22;619;51.472;6.628;2024-01-30T02:33:30;15.60;73.30
1259;DHT22;619;51.472;6.628;2024-01-30T02:35:55;15.60;73.40
1259;DHT22;619;51.472;6.628;2024-01-30T02:38:21;15.60;73.40
1259;DHT22;619;51.472;6.628;2024-01-30T02:40:49;15.60;73.40
1259;DHT22;619;51.472;6.628;2024-01-30T02:43:16;15.60;73.40
1259;DHT22;619;51.472;6.628;2024-01-30T02:45:43;15.50;73.40
1259;DHT22;619;51.472;6.628;2024-01-30T02:48:09;15.50;73.40
1259;DHT22;619;51.472;6.628;2024-01-30T02:50:37;15.50;73.40
1259;DHT22;619;51.472;6.628;2024-01-30T02:53:05;15.50;73.50
1259;DHT22;619;51.472;6.628;2024-01-30T02:55:31;15.50;73.60
1259;DHT22;619;51.472;6.628;2024-01-30T02:57:56;15.50;73.60
1259;DHT22;619;51.472;6.628;2024-01-30T03:00:24;15.50;73.60
1259;DHT22;619;51.472;6.628;2024-01-30T03:02:52;15.50;73.60
1259;DHT22;619;51.472;6.628;2024-01-30T03:05:18;15.50;73.70
1259;DHT22;619;51.472;6.628;2024-01-30T03:07:46;15.40;73.60
1259;DHT22;619;51.472;6.628;2024-01-30T03:10:14;15.40;73.60
1259;DHT22;619;51.472;6.628;2024-01-30T03:12:42;15.40;73.60
1259;DHT22;619;51.472;6.628;2024-01-30T03:15:07;15.40;73.60
1259;DHT22;619;51.472;6.628;2024-01-30T03:17:38;15.40;73.60
1259;DHT22;619;51.472;6.628;2024-01-30T03:20:04;15.40;73.80
1259;DHT22;619;51.472;6.628;2024-01-30T03:22:31;15.40;73.80
1259;DHT22;619;51.472;6.628;2024-01-30T03:24:57;15.40;73.80
1259;DHT22;619;51.472;6.628;2024-01-30T03:27:24;15.40;73.90
1259;DHT22;619;51.472;6.628;2024-01-30T03:29:52;15.40;73.90
1259;DHT22;619;51.472;6.628;2024-01-30T03:32:20;15.40;73.90
1259;DHT22;619;51.472;6.628;2024-01-30T03:34:46;15.40;74.00
1259;DHT22;619;51.472;6.628;2024-01-30T03:37:14;15.40;74.00
1259;DHT22;619;51.472;6.628;2024-01-30T03:39:40;15.40;73.80
1259;DHT22;619;51.472;6.628;2024-01-30T03:42:07;15.40;73.80
1259;DHT22;619;51.472;6.628;2024-01-30T03:44:35;15.40;73.70
1259;DHT22;619;51.472;6.628;2024-01-30T03:47:01;15.40;73.70
1259;DHT22;619;51.472;6.628;2024-01-30T03:49:26;15.40;73.70
1259;DHT22;619;51.472;6.628;2024-01-30T03:51:54;15.40;73.70
1259;DHT22;619;51.472;6.628;2024-01-30T03:54:20;15.30;74.50
1259;DHT22;619;51.472;6.628;2024-01-30T03:56:50;15.30;73.80
1259;DHT22;619;51.472;6.628;2024-01-30T03:59:20;15.30;73.80
1259;DHT22;619;51.472;6.628;2024-01-30T04:01:50;15.30;74.00
1259;DHT22;619;51.472;6.628;2024-01-30T04:04:17;15.30;74.20
1259;DHT22;619;51.472;6.628;2024-01-30T04:06:46;15.20;74.90
1259;DHT22;619;51.472;6.628;2024-01-30T04:09:12;15.20;74.30
1259;DHT22;619;51.472;6.628;2024-01-30T04:11:41;15.20;74.40
1259;DHT22;619;51.472;6.628;2024-01-30T04:14:09;15.20;74.60
1259;DHT22;619;51.472;6.628;2024-01-30T04:16:35;15.20;74.30
1259;DHT22;619;51.472;6.628;2024-01-30T04:19:01;15.20;74.30
1259;DHT22;619;51.472;6.628;2024-01-30T04:21:29;15.20;74.40
1259;DHT22;619;51.472;6.628;2024-01-30T04:23:57;15.10;75.10
1259;DHT22;619;51.472;6.628;2024-01-30T04:26:25;15.10;74.40
1259;DHT22;619;51.472;6.628;2024-01-30T04:28:50;15.10;74.50
1259;DHT22;619;51.472;6.628;2024-01-30T04:31:20;15.10;74.60
1259;DHT22;619;51.472;6.628;2024-01-30T04:33:48;15.10;74.60
1259;DHT22;619;51.472;6.628;2024-01-30T04:36:16;15.10;74.60
1259;DHT22;619;51.472;6.628;2024-01-30T04:38:44;15.10;74.50
1259;DHT22;619;51.472;6.628;2024-01-30T04:41:12;15.10;74.50
1259;DHT22;619;51.472;6.628;2024-01-30T04:43:38;15.10;74.50
1259;DHT22;619;51.472;6.628;2024-01-30T04:46:05;15.10;74.50
1259;DHT22;619;51.472;6.628;2024-01-30T04:48:36;15.10;74.50
1259;DHT22;619;51.472;6.628;2024-01-30T04:51:01;15.10;74.70
1259;DHT22;619;51.472;6.628;2024-01-30T04:53:30;15.10;74.60
1259;DHT22;619;51.472;6.628;2024-01-30T04:55:58;15.10;74.60
1259;DHT22;619;51.472;6.628;2024-01-30T04:58:24;15.10;74.70
1259;DHT22;619;51.472;6.628;2024-01-30T05:00:50;15.10;75.40
1259;DHT22;619;51.472;6.628;2024-01-30T05:03:18;15.10;74.60
1259;DHT22;619;51.472;6.628;2024-01-30T05:05:44;15.10;74.70
1259;DHT22;619;51.472;6.628;2024-01-30T05:08:12;15.10;74.80
1259;DHT22;619;51.472;6.628;2024-01-30T05:10:40;15.10;74.80
1259;DHT22;619;51.472;6.628;2024-01-30T05:13:06;15.10;74.70
1259;DHT22;619;51.472;6.628;2024-01-30T05:15:34;15.10;74.80
1259;DHT22;619;51.472;6.628;2024-01-30T05:18:02;15.10;74.70
1259;DHT22;619;51.472;6.628;2024-01-30T05:20:27;15.10;74.60
1259;DHT22;619;51.472;6.628;2024-01-30T05:22:54;15.20;74.70
1259;DHT22;619;51.472;6.628;2024-01-30T05:25:19;15.20;74.80
1259;DHT22;619;51.472;6.628;2024-01-30T05:27:47;15.20;74.60
1259;DHT22;619;51.472;6.628;2024-01-30T05:30:13;15.20;74.70
1259;DHT22;619;51.472;6.628;2024-01-30T05:32:41;15.20;74.70
1259;DHT22;619;51.472;6.628;2024-01-30T05:35:07;15.20;74.70
1259;DHT22;619;51.472;6.628;2024-01-30T05:37:34;15.20;74.70
1259;DHT22;619;51.472;6.628;2024-01-30T05:40:00;15.20;74.60
1259;DHT22;619;51.472;6.628;2024-01-30T05:42:26;15.20;74.70
1259;DHT22;619;51.472;6.628;2024-01-30T05:44:54;15.20;74.70
1259;DHT22;619;51.472;6.628;2024-01-30T05:47:20;15.10;74.80
1259;DHT22;619;51.472;6.628;2024-01-30T05:49:48;15.10;74.90
1259;DHT22;619;51.472;6.628;2024-01-30T05:52:13;15.10;74.90
1259;DHT22;619;51.472;6.628;2024-01-30T05:54:40;15.10;75.10
1259;DHT22;619;51.472;6.628;2024-01-30T05:57:08;15.10;75.10
1259;DHT22;619;51.472;6.628;2024-01-30T05:59:36;15.10;75.10
1259;DHT22;619;51.472;6.628;2024-01-30T06:02:02;15.20;75.30
1259;DHT22;619;51.472;6.628;2024-01-30T06:04:30;15.10;75.30
1259;DHT22;619;51.472;6.628;2024-01-30T06:06:56;15.10;75.20
1259;DHT22;619;51.472;6.628;2024-01-30T06:09:21;15.10;75.20
1259;DHT22;619;51.472;6.628;2024-01-30T06:11:47;15.10;75.20
1259;DHT22;619;51.472;6.628;2024-01-30T06:14:14;15.20;75.30
1259;DHT22;619;51.472;6.628;2024-01-30T06:16:40;15.20;75.20
1259;DHT22;619;51.472;6.628;2024-01-30T06:19:08;15.20;75.10
1259;DHT22;619;51.472;6.628;2024-01-30T06:21:36;15.20;75.00
1259;DHT22;619;51.472;6.628;2024-01-30T06:24:05;15.20;75.00
1259;DHT22;619;51.472;6.628;2024-01-30T06:26:30;15.30;75.10
1259;DHT22;619;51.472;6.628;2024-01-30T06:28:58;15.30;75.00
1259;DHT22;619;51.472;6.628;2024-01-30T06:31:24;15.30;75.00
1259;DHT22;619;51.472;6.628;2024-01-30T06:33:52;15.40;75.00
1259;DHT22;619;51.472;6.628;2024-01-30T06:36:20;15.40;74.90
1259;DHT22;619;51.472;6.628;2024-01-30T06:38:45;15.40;74.70
1259;DHT22;619;51.472;6.628;2024-01-30T06:41:11;15.40;74.60
1259;DHT22;619;51.472;6.628;2024-01-30T06:43:41;15.50;75.30
1259;DHT22;619;51.472;6.628;2024-01-30T06:46:10;15.40;74.30
1259;DHT22;619;51.472;6.628;2024-01-30T06:48:38;15.40;74.40
1259;DHT22;619;51.472;6.628;2024-01-30T06:51:05;15.50;74.50
1259;DHT22;619;51.472;6.628;2024-01-30T06:53:31;15.50;74.60
1259;DHT22;619;51.472;6.628;2024-01-30T06:55:57;15.40;74.40
1259;DHT22;619;51.472;6.628;2024-01-30T06:58:23;15.40;74.50
1259;DHT22;619;51.472;6.628;2024-01-30T07:00:48;15.40;74.50
1259;DHT22;619;51.472;6.628;2024-01-30T07:03:16;15.40;74.50
1259;DHT22;619;51.472;6.628;2024-01-30T07:05:42;15.40;74.40
1259;DHT22;619;51.472;6.628;2024-01-30T07:08:08;15.40;74.50
1259;DHT22;619;51.472;6.628;2024-01-30T07:10:33;15.40;74.40
1259;DHT22;619;51.472;6.628;2024-01-30T07:13:00;15.50;75.10
1259;DHT22;619;51.472;6.628;2024-01-30T07:15:26;15.50;74.60
1259;DHT22;619;51.472;6.628;2024-01-30T07:17:54;15.50;74.60
1259;DHT22;619;51.472;6.628;2024-01-30T07:20:20;15.50;74.50
1259;DHT22;619;51.472;6.628;2024-01-30T07:22:46;15.50;74.50
1259;DHT22;619;51.472;6.628;2024-01-30T07:25:11;15.50;74.40
1259;DHT22;619;51.472;6.628;2024-01-30T07:27:37;15.60;74.50
1259;DHT22;619;51.472;6.628;2024-01-30T07:30:03;15.60;74.40
1259;DHT22;619;51.472;6.628;2024-01-30T07:32:28;15.60;74.40
1259;DHT22;619;51.472;6.628;2024-01-30T07:34:54;15.70;74.40
1259;DHT22;619;51.472;6.628;2024-01-30T07:37:22;15.60;74.30
1259;DHT22;619;51.472;6.628;2024-01-30T07:39:47;15.70;74.50
1259;DHT22;619;51.472;6.628;2024-01-30T07:42:13;15.70;74.50
1259;DHT22;619;51.472;6.628;2024-01-30T07:44:38;15.70;74.50
1259;DHT22;619;51.472;6.628;2024-01-30T07:47:05;15.70;74.40
1259;DHT22;619;51.472;6.628;2024-01-30T07:49:33;15.70;74.40
1259;DHT22;619;51.472;6.628;2024-01-30T07:52:01;15.70;74.30
1259;DHT22;619;51.472;6.628;2024-01-30T07:54:33;15.70;74.30
1259;DHT22;619;51.472;6.628;2024-01-30T07:57:06;15.80;74.40
1259;DHT22;619;51.472;6.628;2024-01-30T07:59:32;15.80;74.30
1259;DHT22;619;51.472;6.628;2024-01-30T08:01:57;15.80;74.30
1259;DHT22;619;51.472;6.628;2024-01-30T08:04:25;15.90;74.20
1259;DHT22;619;51.472;6.628;2024-01-30T08:06:53;15.90;74.10
1259;DHT22;619;51.472;6.628;2024-01-30T08:09:19;15.90;74.10
1259;DHT22;619;51.472;6.628;2024-01-30T08:11:44;16.00;74.00
1259;DHT22;619;51.472;6.628;2024-01-30T08:14:12;16.00;74.00
1259;DHT22;619;51.472;6.628;2024-01-30T08:16:39;16.00;74.60
1259;DHT22;619;51.472;6.628;2024-01-30T08:19:06;16.00;74.50
1259;DHT22;619;51.472;6.628;2024-01-30T08:21:32;16.10;73.90
1259;DHT22;619;51.472;6.628;2024-01-30T08:24:03;16.10;73.90
1259;DHT22;619;51.472;6.628;2024-01-30T08:26:32;16.10;73.80
1259;DHT22;619;51.472;6.628;2024-01-30T08:28:58;16.20;73.80
1259;DHT22;619;51.472;6.628;2024-01-30T08:31:24;16.20;73.80
1259;DHT22;619;51.472;6.628;2024-01-30T08:33:49;16.20;73.70
1259;DHT22;619;51.472;6.628;2024-01-30T08:36:16;16.30;73.70
1259;DHT22;619;51.472;6.628;2024-01-30T08:38:41;16.30;73.60
1259;DHT22;619;51.472;6.628;2024-01-30T08:41:09;16.40;73.60
1259;DHT22;619;51.472;6.628;2024-01-30T08:43:40;16.40;73.50
1259;DHT22;619;51.472;6.628;2024-01-30T08:46:08;16.50;73.40
1259;DHT22;619;51.472;6.628;2024-01-30T08:48:36;16.60;73.40
1259;DHT22;619;51.472;6.628;2024-01-30T08:51:04;16.60;74.10
1259;DHT22;619;51.472;6.628;2024-01-30T08:53:36;16.60;73.20
1259;DHT22;619;51.472;6.628;2024-01-30T08:56:05;16.60;73.10
1259;DHT22;619;51.472;6.628;2024-01-30T08:58:31;16.70;73.10
1259;DHT22;619;51.472;6.628;2024-01-30T09:00:57;16.70;72.90
1259;DHT22;619;51.472;6.628;2024-01-30T09:03:24;16.70;72.80
1259;DHT22;619;51.472;6.628;2024-01-30T09:05:53;16.70;73.40
1259;DHT22;619;51.472;6.628;2024-01-30T09:08:18;16.70;72.60
1259;DHT22;619;51.472;6.628;2024-01-30T09:10:46;16.70;72.60
1259;DHT22;619;51.472;6.628;2024-01-30T09:13:12;16.70;72.70
1259;DHT22;619;51.472;6.628;2024-01-30T09:15:38;16.70;72.60
1259;DHT22;619;51.472;6.628;2024-01-30T09:18:04;16.70;72.70
1259;DHT22;619;51.472;6.628;2024-01-30T09:20:29;16.70;72.70
1259;DHT22;619;51.472;6.628;2024-01-30T09:22:57;16.80;72.80
1259;DHT22;619;51.472;6.628;2024-01-30T09:25:23;16.90;72.90
1259;DHT22;619;51.472;6.628;2024-01-30T09:27:48;16.90;72.70
1259;DHT22;619;51.472;6.628;2024-01-30T09:30:14;17.00;72.50
1259;DHT22;619;51.472;6.628;2024-01-30T09:32:40;17.10;72.40
1259;DHT22;619;51.472;6.628;2024-01-30T09:35:06;17.20;72.40
1259;DHT22;619;51.472;6.628;2024-01-30T09:37:32;17.30;72.10
1259;DHT22;619;51.472;6.628;2024-01-30T09:40:00;17.30;71.90
1259;DHT22;619;51.472;6.628;2024-01-30T09:44:59;17.40;71.60
1259;DHT22;619;51.472;6.628;2024-01-30T09:47:24;17.50;71.70
1259;DHT22;619;51.472;6.628;2024-01-30T09:49:53;17.60;71.70
1259;DHT22;619;51.472;6.628;2024-01-30T09:52:20;17.60;71.50
1259;DHT22;619;51.472;6.628;2024-01-30T09:54:46;17.70;71.30
1259;DHT22;619;51.472;6.628;2024-01-30T09:57:14;17.80;71.20
1259;DHT22;619;51.472;6.628;2024-01-30T09:59:41;17.90;71.00
1259;DHT22;619;51.472;6.628;2024-01-30T10:02:08;17.90;70.90
1259;DHT22;619;51.472;6.628;2024-01-30T10:04:36;18.00;70.70
1259;DHT22;619;51.472;6.628;2024-01-30T10:07:07;18.10;70.60
1259;DHT22;619;51.472;6.628;2024-01-30T10:09:34;18.20;70.20
1259;DHT22;619;51.472;6.628;2024-01-30T10:12:02;18.20;70.20
1259;DHT22;619;51.472;6.628;2024-01-30T10:14:29;18.20;70.10
1259;DHT22;619;51.472;6.628;2024-01-30T10:16:57;18.30;70.20
1259;DHT22;619;51.472;6.628;2024-01-30T10:19:23;18.30;70.10
1259;DHT22;619;51.472;6.628;2024-01-30T10:21:49;18.40;70.10
1259;DHT22;619;51.472;6.628;2024-01-30T10:24:15;18.50;70.20
1259;DHT22;619;51.472;6.628;2024-01-30T10:26:45;18.60;70.10
1259;DHT22;619;51.472;6.628;2024-01-30T10:29:12;18.60;69.70
1259;DHT22;619;51.472;6.628;2024-01-30T10:31:40;18.70;69.70
1259;DHT22;619;51.472;6.628;2024-01-30T10:34:05;18.80;69.40
1259;DHT22;619;51.472;6.628;2024-01-30T10:36:39;18.80;69.30
1259;DHT22;619;51.472;6.628;2024-01-30T10:39:06;18.80;69.10
1259;DHT22;619;51.472;6.628;2024-01-30T10:41:38;18.90;68.90
1259;DHT22;619;51.472;6.628;2024-01-30T10:44:10;18.90;68.90
1259;DHT22;619;51.472;6.628;2024-01-30T10:46:38;19.00;68.90
1259;DHT22;619;51.472;6.628;2024-01-30T10:49:05;19.00;68.70
1259;DHT22;619;51.472;6.628;2024-01-30T10:51:32;19.00;68.70
1259;DHT22;619;51.472;6.628;2024-01-30T10:53:58;19.00;68.70
1259;DHT22;619;51.472;6.628;2024-01-30T10:56:24;19.00;68.70
1259;DHT22;619;51.472;6.628;2024-01-30T10:58:51;19.00;68.80
1259;DHT22;619;51.472;6.628;2024-01-30T11:01:22;19.00;68.70
1259;DHT22;619;51.472;6.628;2024-01-30T11:03:55;19.00;68.80
1259;DHT22;619;51.472;6.628;2024-01-30T11:06:25;19.10;69.00
1259;DHT22;619;51.472;6.628;2024-01-30T11:09:04;19.10;68.90
1259;DHT22;619;51.472;6.628;2024-01-30T11:14:27;19.20;69.10
1259;DHT22;619;51.472;6.628;2024-01-30T11:16:57;19.20;69.00
1259;DHT22;619;51.472;6.628;2024-01-30T11:19:24;19.30;68.90
1259;DHT22;619;51.472;6.628;2024-01-30T11:21:52;19.30;69.00
1259;DHT22;619;51.472;6.628;2024-01-30T11:24:20;19.30;68.90
1259;DHT22;619;51.472;6.628;2024-01-30T11:26:57;19.30;68.80
1259;DHT22;619;51.472;6.628;2024-01-30T11:29:29;19.30;68.90
1259;DHT22;619;51.472;6.628;2024-01-30T11:31:58;19.30;68.90
1259;DHT22;619;51.472;6.628;2024-01-30T11:34:24;19.30;68.90
1259;DHT22;619;51.472;6.628;2024-01-30T11:36:58;19.30;69.10
1259;DHT22;619;51.472;6.628;2024-01-30T11:39:25;19.30;69.20
1259;DHT22;619;51.472;6.628;2024-01-30T11:41:52;19.30;69.30
1259;DHT22;619;51.472;6.628;2024-01-30T11:44:20;19.30;69.20
1259;DHT22;619;51.472;6.628;2024-01-30T11:46:47;19.30;69.30
1259;DHT22;619;51.472;6.628;2024-01-30T11:49:13;19.30;69.40
1259;DHT22;619;51.472;6.628;2024-01-30T11:51:42;19.30;69.40
1259;DHT22;619;51.472;6.628;2024-01-30T11:54:08;19.40;69.50
1259;DHT22;619;51.472;6.628;2024-01-30T11:56:37;19.40;69.40
1259;DHT22;619;51.472;6.628;2024-01-30T11:59:05;19.40;69.50
1259;DHT22;619;51.472;6.628;2024-01-30T12:01:31;19.50;69.70
1259;DHT22;619;51.472;6.628;2024-01-30T12:03:58;19.50;69.60
1259;DHT22;619;51.472;6.628;2024-01-30T12:06:27;19.50;69.60
1259;DHT22;619;51.472;6.628;2024-01-30T12:08:58;19.50;69.50
1259;DHT22;619;51.472;6.628;2024-01-30T12:11:25;19.50;69.70
1259;DHT22;619;51.472;6.628;2024-01-30T12:13:52;19.50;69.80
1259;DHT22;619;51.472;6.628;2024-01-30T12:16:21;19.50;69.90
1259;DHT22;619;51.472;6.628;2024-01-30T12:18:49;19.50;70.90
1259;DHT22;619;51.472;6.628;2024-01-30T12:21:17;19.50;70.10
1259;DHT22;619;51.472;6.628;2024-01-30T12:23:45;19.40;70.10
1259;DHT22;619;51.472;6.628;2024-01-30T12:26:11;19.40;70.20
1259;DHT22;619;51.472;6.628;2024-01-30T12:28:47;19.40;70.30
1259;DHT22;619;51.472;6.628;2024-01-30T12:31:13;19.40;70.50
1259;DHT22;619;51.472;6.628;2024-01-30T12:33:41;19.50;70.60
1259;DHT22;619;51.472;6.628;2024-01-30T12:36:07;19.50;70.60
1259;DHT22;619;51.472;6.628;2024-01-30T12:38:33;19.50;70.70
1259;DHT22;619;51.472;6.628;2024-01-30T12:41:01;19.50;70.80
1259;DHT22;619;51.472;6.628;2024-01-30T12:43:29;19.50;70.90
1259;DHT22;619;51.472;6.628;2024-01-30T12:46:04;19.50;71.00
1259;DHT22;619;51.472;6.628;2024-01-30T12:48:37;19.50;71.00
1259;DHT22;619;51.472;6.628;2024-01-30T12:51:03;19.50;71.00
1259;DHT22;619;51.472;6.628;2024-01-30T12:53:29;19.50;71.00
1259;DHT22;619;51.472;6.628;2024-01-30T12:55:58;19.60;71.20
1259;DHT22;619;51.472;6.628;2024-01-30T12:58:23;19.60;71.30
1259;DHT22;619;51.472;6.628;2024-01-30T13:00:49;19.70;71.50
1259;DHT22;619;51.472;6.628;2024-01-30T13:03:14;19.70;71.50
1259;DHT22;619;51.472;6.628;2024-01-30T13:05:41;19.70;71.60
1259;DHT22;619;51.472;6.628;2024-01-30T13:08:06;19.80;71.70
1259;DHT22;619;51.472;6.628;2024-01-30T13:10:32;19.80;71.70
1259;DHT22;619;51.472;6.628;2024-01-30T13:13:00;19.80;71.90
1259;DHT22;619;51.472;6.628;2024-01-30T13:15:26;19.80;72.10
1259;DHT22;619;51.472;6.628;2024-01-30T13:17:52;19.80;72.20
1259;DHT22;619;51.472;6.628;2024-01-30T13:20:19;19.80;72.10
1259;DHT22;619;51.472;6.628;2024-01-30T13:22:47;19.90;72.10
1259;DHT22;619;51.472;6.628;2024-01-30T13:25:14;19.90;72.10
1259;DHT22;619;51.472;6.628;2024-01-30T13:27:41;19.90;72.10
1259;DHT22;619;51.472;6.628;2024-01-30T13:30:08;19.90;71.90
1259;DHT22;619;51.472;6.628;2024-01-30T13:32:35;19.90;72.00
1259;DHT22;619;51.472;6.628;2024-01-30T13:35:03;19.90;72.00
1259;DHT22;619;51.472;6.628;2024-01-30T13:37:31;19.90;72.00
1259;DHT22;619;51.472;6.628;2024-01-30T13:39:57;19.90;72.00
1259;DHT22;619;51.472;6.628;2024-01-30T13:42:27;19.90;71.90
1259;DHT22;619;51.472;6.628;2024-01-30T13:44:52;19.80;71.80
1259;DHT22;619;51.472;6.628;2024-01-30T13:47:18;19.80;71.80
1259;DHT22;619;51.472;6.628;2024-01-30T13:49:47;19.80;71.90
1259;DHT22;619;51.472;6.628;2024-01-30T13:52:15;19.70;71.70
1259;DHT22;619;51.472;6.628;2024-01-30T13:54:41;19.70;71.70
1259;DHT22;619;51.472;6.628;2024-01-30T13:57:06;19.60;71.50
1259;DHT22;619;51.472;6.628;2024-01-30T13:59:38;19.60;71.50
1259;DHT22;619;51.472;6.628;2024-01-30T14:02:06;19.50;71.40
1259;DHT22;619;51.472;6.628;2024-01-30T14:04:33;19.50;71.30
1259;DHT22;619;51.472;6.628;2024-01-30T14:06:59;19.50;72.10
1259;DHT22;619;51.472;6.628;2024-01-30T14:09:25;19.60;71.40
1259;DHT22;619;51.472;6.628;2024-01-30T14:11:52;19.60;71.30
1259;DHT22;619;51.472;6.628;2024-01-30T14:14:18;19.70;71.20
1259;DHT22;619;51.472;6.628;2024-01-30T14:16:44;19.70;71.00
1259;DHT22;619;51.472;6.628;2024-01-30T14:19:10;19.70;70.70
1259;DHT22;619;51.472;6.628;2024-01-30T14:21:36;19.70;70.70
1259;DHT22;619;51.472;6.628;2024-01-30T14:24:06;19.70;70.70
1259;DHT22;619;51.472;6.628;2024-01-30T14:26:34;19.60;70.30
1259;DHT22;619;51.472;6.628;2024-01-30T14:29:02;19.30;69.30
1259;DHT22;619;51.472;6.628;2024-01-30T14:31:27;19.10;69.20
1259;DHT22;619;51.472;6.628;2024-01-30T14:33:58;18.90;68.80
1259;DHT22;619;51.472;6.628;2024-01-30T14:36:24;18.90;68.70
1259;DHT22;619;51.472;6.628;2024-01-30T14:38:55;18.70;68.50
1259;DHT22;619;51.472;6.628;2024-01-30T14:41:21;18.70;68.80
1259;DHT22;619;51.472;6.628;2024-01-30T14:43:47;18.70;68.70
1259;DHT22;619;51.472;6.628;2024-01-30T14:46:15;18.60;68.20
1259;DHT22;619;51.472;6.628;2024-01-30T14:48:44;18.60;68.40
1259;DHT22;619;51.472;6.628;2024-01-30T14:51:10;18.60;68.40
1259;DHT22;619;51.472;6.628;2024-01-30T14:53:35;18.60;68.10
1259;DHT22;619;51.472;6.628;2024-01-30T14:56:01;18.60;67.90
1259;DHT22;619;51.472;6.628;2024-01-30T14:58:28;18.60;67.70
1259;DHT22;619;51.472;6.628;2024-01-30T15:00:53;18.60;67.40
1259;DHT22;619;51.472;6.628;2024-01-30T15:03:19;18.50;67.20
1259;DHT22;619;51.472;6.628;2024-01-30T15:05:45;18.40;66.90
1259;DHT22;619;51.472;6.628;2024-01-30T15:08:10;18.30;66.90
1259;DHT22;619;51.472;6.628;2024-01-30T15:10:38;18.30;66.80
1259;DHT22;619;51.472;6.628;2024-01-30T15:13:04;18.20;65.90
1259;DHT22;619;51.472;6.628;2024-01-30T15:15:30;18.20;65.90
1259;DHT22;619;51.472;6.628;2024-01-30T15:18:00;18.10;65.20
1259;DHT22;619;51.472;6.628;2024-01-30T15:20:30;18.10;65.30
1259;DHT22;619;51.472;6.628;2024-01-30T15:22:59;18.10;65.30
1259;DHT22;619;51.472;6.628;2024-01-30T15:25:24;18.10;65.10
1259;DHT22;619;51.472;6.628;2024-01-30T15:27:52;18.10;65.20
1259;DHT22;619;51.472;6.628;2024-01-30T15:30:18;18.10;65.50
1259;DHT22;619;51.472;6.628;2024-01-30T15:32:45;18.00;65.40
1259;DHT22;619;51.472;6.628;2024-01-30T15:35:10;18.00;65.50
1259;DHT22;619;51.472;6.628;2024-01-30T15:37:36;17.90;65.30
1259;DHT22;619;51.472;6.628;2024-01-30T15:40:02;17.80;64.60
1259;DHT22;619;51.472;6.628;2024-01-30T15:42:31;17.80;64.60
1259;DHT22;619;51.472;6.628;2024-01-30T15:45:01;17.70;64.60
1259;DHT22;619;51.472;6.628;2024-01-30T15:47:27;17.70;64.50
1259;DHT22;619;51.472;6.628;2024-01-30T15:49:55;17.70;64.30
1259;DHT22;619;51.472;6.628;2024-01-30T15:52:23;17.50;64.30
1259;DHT22;619;51.472;6.628;2024-01-30T15:54:51;17.50;64.50
1259;DHT22;619;51.472;6.628;2024-01-30T15:57:21;17.50;64.50
1259;DHT22;619;51.472;6.628;2024-01-30T15:59:46;17.50;64.40
1259;DHT22;619;51.472;6.628;2024-01-30T16:02:14;17.50;64.50
1259;DHT22;619;51.472;6.628;2024-01-30T16:04:40;17.50;64.40
1259;DHT22;619;51.472;6.628;2024-01-30T16:07:06;17.50;64.20
1259;DHT22;619;51.472;6.628;2024-01-30T16:09:31;17.50;64.30
1259;DHT22;619;51.472;6.628;2024-01-30T16:11:58;17.50;64.40
1259;DHT22;619;51.472;6.628;2024-01-30T16:14:23;17.50;64.20
1259;DHT22;619;51.472;6.628;2024-01-30T16:16:49;17.50;64.20
1259;DHT22;619;51.472;6.628;2024-01-30T16:19:18;17.40;64.00
1259;DHT22;619;51.472;6.628;2024-01-30T16:21:44;17.40;64.90